createdAt,value
2017-01-27T00:00:12.661Z,57.28
2017-01-27T00:01:13.328Z,57.36
2017-01-27T00:02:14.142Z,57.41
2017-01-27T00:03:12.113Z,57.51
2017-01-27T00:04:12.366Z,57.47
2017-01-27T00:05:13.122Z,57.55
2017-01-27T00:06:12.890Z,57.56
2017-01-27T00:07:13.151Z,57.57
2017-01-27T00:08:12.817Z,57.54
2017-01-27T00:09:12.942Z,57.56
2017-01-27T00:10:09.995Z,57.62
2017-01-27T00:11:13.734Z,57.56
2017-01-27T00:12:12.819Z,57.58
2017-01-27T00:13:13.544Z,57.60
2017-01-27T00:14:11.751Z,57.68
2017-01-27T00:15:13.405Z,57.60
2017-01-27T00:16:14.073Z,57.65
2017-01-27T00:17:12.294Z,57.74
2017-01-27T00:18:13.045Z,57.73
2017-01-27T00:19:12.272Z,57.60
2017-01-27T00:20:12.827Z,57.59
2017-01-27T00:21:13.534Z,57.70
2017-01-27T00:22:13.202Z,57.69
2017-01-27T00:23:12.847Z,57.60
2017-01-27T00:24:13.072Z,57.63
2017-01-27T00:25:12.673Z,57.60
2017-01-27T00:26:12.814Z,57.58
2017-01-27T00:27:13.610Z,57.55
2017-01-27T00:28:12.815Z,57.58
2017-01-27T00:29:13.005Z,57.64
2017-01-27T00:30:12.603Z,57.65
2017-01-27T00:31:15.639Z,57.58
2017-01-27T00:32:12.865Z,57.63
2017-01-27T00:33:13.420Z,57.61
2017-01-27T00:34:12.529Z,57.58
2017-01-27T00:35:13.108Z,57.57
2017-01-27T00:36:11.252Z,57.72
2017-01-27T00:37:13.089Z,57.66
2017-01-27T00:38:12.258Z,57.54
2017-01-27T00:39:12.862Z,57.61
2017-01-27T00:40:13.753Z,57.61
2017-01-27T00:41:13.490Z,57.52
2017-01-27T00:42:14.147Z,57.60
2017-01-27T00:43:12.446Z,57.34
2017-01-27T00:44:12.695Z,57.85
2017-01-27T00:45:14.235Z,57.94
2017-01-27T00:46:13.083Z,58.07
2017-01-27T00:47:13.534Z,58.30
2017-01-27T00:48:12.686Z,58.34
2017-01-27T00:49:15.335Z,58.55
2017-01-27T00:50:12.994Z,58.53
2017-01-27T00:51:12.942Z,58.45
2017-01-27T00:52:12.113Z,58.63
2017-01-27T00:53:13.774Z,58.76
2017-01-27T00:54:13.530Z,58.88
2017-01-27T00:55:15.644Z,58.76
2017-01-27T00:56:12.683Z,58.97
2017-01-27T00:57:14.114Z,58.88
2017-01-27T00:58:12.811Z,59.12
2017-01-27T00:59:13.753Z,58.81
2017-01-27T01:00:13.613Z,59.04
2017-01-27T01:01:14.439Z,59.00
2017-01-27T01:02:12.106Z,59.10
2017-01-27T01:03:15.942Z,58.19
2017-01-27T01:04:13.962Z,57.83
2017-01-27T01:05:13.552Z,57.95
2017-01-27T01:06:14.470Z,58.65
2017-01-27T01:07:14.621Z,58.78
2017-01-27T01:08:13.354Z,58.92
2017-01-27T01:09:14.625Z,59.10
2017-01-27T01:10:13.669Z,58.96
2017-01-27T01:11:15.006Z,59.13
2017-01-27T01:12:11.424Z,58.89
2017-01-27T01:13:12.490Z,58.27
2017-01-27T01:14:14.626Z,57.78
2017-01-27T01:15:14.222Z,57.77
2017-01-27T01:16:15.477Z,57.59
2017-01-27T01:17:14.977Z,57.66
2017-01-27T01:18:12.595Z,57.71
2017-01-27T01:19:13.274Z,58.52
2017-01-27T01:20:13.162Z,58.85
2017-01-27T01:21:12.854Z,58.82
2017-01-27T01:22:11.215Z,58.77
2017-01-27T01:23:12.126Z,58.80
2017-01-27T01:24:12.913Z,58.84
2017-01-27T01:25:12.823Z,58.94
2017-01-27T01:26:12.986Z,58.96
2017-01-27T01:27:13.395Z,58.89
2017-01-27T01:28:13.796Z,58.92
2017-01-27T01:29:14.484Z,58.89
2017-01-27T01:30:12.438Z,58.04
2017-01-27T01:31:13.231Z,57.84
2017-01-27T01:32:12.955Z,57.67
2017-01-27T01:33:12.074Z,58.47
2017-01-27T01:34:11.405Z,58.70
2017-01-27T01:35:12.665Z,58.77
2017-01-27T01:36:12.796Z,58.78
2017-01-27T01:37:13.728Z,58.81
2017-01-27T01:38:13.712Z,58.82
2017-01-27T01:39:13.695Z,58.71
2017-01-27T01:40:12.628Z,58.89
2017-01-27T01:41:13.374Z,58.82
2017-01-27T01:42:13.729Z,58.86
2017-01-27T01:43:13.554Z,58.76
2017-01-27T01:44:14.043Z,58.72
2017-01-27T01:45:13.648Z,58.72
2017-01-27T01:46:13.416Z,58.74
2017-01-27T01:47:13.091Z,58.91
2017-01-27T01:48:12.827Z,58.75
2017-01-27T01:49:12.866Z,58.90
2017-01-27T01:50:13.276Z,58.63
2017-01-27T01:51:13.608Z,57.96
2017-01-27T01:52:14.083Z,58.63
2017-01-27T01:53:12.871Z,58.74
2017-01-27T01:54:13.559Z,58.77
2017-01-27T01:55:13.233Z,58.88
2017-01-27T01:56:14.348Z,58.90
2017-01-27T01:57:13.117Z,58.97
2017-01-27T01:58:12.916Z,58.95
2017-01-27T01:59:14.762Z,59.02
2017-01-27T02:00:13.721Z,58.98
2017-01-27T02:01:13.415Z,59.11
2017-01-27T02:02:13.251Z,59.16
2017-01-27T02:03:12.425Z,59.21
2017-01-27T02:04:14.383Z,59.33
2017-01-27T02:05:14.106Z,59.29
2017-01-27T02:06:12.648Z,59.35
2017-01-27T02:07:13.244Z,59.34
2017-01-27T02:08:13.679Z,59.29
2017-01-27T02:09:13.426Z,59.24
2017-01-27T02:10:12.424Z,59.21
2017-01-27T02:11:13.056Z,59.26
2017-01-27T02:12:12.778Z,59.35
2017-01-27T02:13:13.380Z,59.42
2017-01-27T02:14:14.148Z,59.40
2017-01-27T02:15:13.754Z,59.46
2017-01-27T02:16:14.173Z,59.39
2017-01-27T02:17:12.873Z,59.43
2017-01-27T02:18:13.499Z,59.50
2017-01-27T02:19:13.498Z,59.45
2017-01-27T02:20:13.409Z,59.41
2017-01-27T02:21:13.143Z,59.41
2017-01-27T02:22:12.318Z,58.46
2017-01-27T02:23:12.866Z,58.32
2017-01-27T02:24:13.631Z,58.33
2017-01-27T02:25:11.979Z,58.21
2017-01-27T02:26:12.982Z,58.12
2017-01-27T02:27:12.885Z,58.08
2017-01-27T02:28:14.500Z,57.93
2017-01-27T02:29:14.057Z,57.91
2017-01-27T02:30:12.305Z,58.04
2017-01-27T02:31:12.476Z,58.27
2017-01-27T02:32:14.237Z,59.00
2017-01-27T02:33:13.507Z,59.09
2017-01-27T02:34:13.159Z,59.10
2017-01-27T02:35:13.882Z,59.26
2017-01-27T02:36:14.706Z,59.21
2017-01-27T02:37:14.564Z,59.33
2017-01-27T02:38:12.756Z,59.18
2017-01-27T02:39:14.436Z,59.11
2017-01-27T02:40:13.388Z,59.11
2017-01-27T02:41:13.231Z,59.05
2017-01-27T02:42:14.034Z,58.94
2017-01-27T02:43:12.676Z,58.97
2017-01-27T02:44:14.448Z,58.92
2017-01-27T02:45:13.256Z,58.82
2017-01-27T02:46:13.447Z,58.82
2017-01-27T02:47:12.687Z,58.91
2017-01-27T02:48:12.716Z,58.89
2017-01-27T02:49:13.956Z,58.79
2017-01-27T02:50:12.244Z,58.83
2017-01-27T02:51:13.047Z,58.84
2017-01-27T02:52:12.169Z,58.88
2017-01-27T02:53:12.191Z,58.97
2017-01-27T02:54:12.295Z,58.87
2017-01-27T02:55:12.403Z,58.77
2017-01-27T02:56:12.515Z,58.88
2017-01-27T02:57:14.378Z,58.92
2017-01-27T02:58:13.244Z,58.91
2017-01-27T02:59:12.777Z,58.96
2017-01-27T03:00:14.737Z,58.82
2017-01-27T03:01:13.356Z,58.93
2017-01-27T03:02:13.259Z,58.95
2017-01-27T03:03:13.125Z,58.94
2017-01-27T03:04:12.146Z,58.89
2017-01-27T03:05:12.184Z,58.86
2017-01-27T03:06:12.830Z,58.83
2017-01-27T03:07:15.105Z,58.89
2017-01-27T03:08:13.044Z,58.84
2017-01-27T03:09:12.209Z,58.91
2017-01-27T03:10:12.325Z,58.87
2017-01-27T03:11:13.628Z,58.98
2017-01-27T03:12:15.083Z,58.99
2017-01-27T03:13:11.423Z,58.95
2017-01-27T03:14:10.857Z,58.97
2017-01-27T03:15:12.719Z,59.02
2017-01-27T03:16:12.774Z,59.00
2017-01-27T03:17:12.946Z,58.77
2017-01-27T03:18:12.238Z,58.87
2017-01-27T03:19:12.337Z,58.84
2017-01-27T03:20:14.877Z,58.92
2017-01-27T03:21:13.971Z,58.95
2017-01-27T03:22:12.890Z,58.89
2017-01-27T03:23:13.550Z,58.91
2017-01-27T03:24:12.739Z,58.87
2017-01-27T03:25:11.717Z,58.92
2017-01-27T03:26:12.987Z,58.04
2017-01-27T03:27:12.467Z,58.73
2017-01-27T03:28:14.194Z,58.74
2017-01-27T03:29:12.926Z,58.84
2017-01-27T03:30:13.095Z,58.87
2017-01-27T03:31:13.193Z,58.97
2017-01-27T03:32:13.223Z,58.79
2017-01-27T03:33:14.053Z,58.84
2017-01-27T03:34:13.046Z,58.89
2017-01-27T03:35:12.820Z,58.94
2017-01-27T03:36:13.139Z,58.90
2017-01-27T03:37:13.087Z,58.90
2017-01-27T03:38:12.889Z,58.91
2017-01-27T03:39:13.119Z,58.92
2017-01-27T03:40:12.346Z,58.87
2017-01-27T03:41:12.516Z,58.97
2017-01-27T03:42:13.066Z,58.91
2017-01-27T03:43:13.483Z,58.96
2017-01-27T03:44:14.140Z,59.01
2017-01-27T03:45:12.354Z,58.86
2017-01-27T03:46:13.263Z,58.89
2017-01-27T03:47:12.400Z,58.89
2017-01-27T03:48:12.489Z,58.94
2017-01-27T03:49:12.495Z,58.90
2017-01-27T03:50:13.046Z,58.82
2017-01-27T03:51:12.735Z,58.92
2017-01-27T03:52:12.878Z,58.77
2017-01-27T03:53:14.058Z,58.92
2017-01-27T03:54:12.324Z,58.89
2017-01-27T03:55:13.139Z,58.85
2017-01-27T03:56:12.278Z,58.83
2017-01-27T03:57:12.379Z,58.85
2017-01-27T03:58:12.999Z,58.94
2017-01-27T03:59:14.563Z,58.86
2017-01-27T04:00:13.418Z,58.93
2017-01-27T04:01:12.624Z,58.86
2017-01-27T04:02:14.466Z,58.93
2017-01-27T04:03:11.083Z,59.02
2017-01-27T04:04:13.957Z,59.00
2017-01-27T04:05:12.639Z,58.99
2017-01-27T04:06:12.809Z,58.95
2017-01-27T04:07:13.627Z,58.87
2017-01-27T04:08:12.843Z,58.68
2017-01-27T04:09:15.529Z,58.77
2017-01-27T04:10:13.164Z,58.85
2017-01-27T04:11:12.275Z,58.68
2017-01-27T04:12:13.532Z,58.70
2017-01-27T04:13:12.797Z,58.70
2017-01-27T04:14:13.389Z,58.73
2017-01-27T04:15:13.275Z,58.71
2017-01-27T04:16:14.008Z,58.68
2017-01-27T04:17:12.829Z,58.67
2017-01-27T04:18:13.694Z,58.75
2017-01-27T04:19:12.850Z,58.78
2017-01-27T04:20:13.706Z,58.78
2017-01-27T04:21:12.941Z,58.72
2017-01-27T04:22:12.710Z,58.74
2017-01-27T04:23:13.586Z,58.85
2017-01-27T04:24:12.694Z,58.87
2017-01-27T04:25:13.818Z,58.81
2017-01-27T04:26:12.990Z,58.80
2017-01-27T04:27:12.614Z,58.86
2017-01-27T04:28:12.776Z,58.85
2017-01-27T04:29:13.544Z,58.87
2017-01-27T04:30:14.360Z,58.83
2017-01-27T04:31:12.855Z,58.90
2017-01-27T04:32:13.210Z,58.89
2017-01-27T04:33:12.938Z,58.86
2017-01-27T04:34:12.910Z,58.83
2017-01-27T04:35:13.745Z,58.82
2017-01-27T04:36:15.653Z,58.82
2017-01-27T04:37:12.006Z,58.87
2017-01-27T04:38:12.145Z,58.83
2017-01-27T04:39:12.258Z,58.93
2017-01-27T04:40:12.343Z,59.03
2017-01-27T04:41:12.311Z,58.88
2017-01-27T04:42:12.898Z,58.94
2017-01-27T04:43:13.410Z,58.84
2017-01-27T04:44:13.138Z,58.86
2017-01-27T04:45:13.332Z,58.79
2017-01-27T04:46:13.027Z,58.84
2017-01-27T04:47:12.619Z,58.86
2017-01-27T04:48:13.255Z,59.55
2017-01-27T04:49:12.384Z,58.51
2017-01-27T04:50:13.070Z,58.17
2017-01-27T04:51:12.078Z,58.03
2017-01-27T04:52:12.711Z,57.96
2017-01-27T04:53:13.359Z,57.90
2017-01-27T04:54:11.428Z,57.78
2017-01-27T04:55:14.160Z,58.73
2017-01-27T04:56:13.173Z,58.90
2017-01-27T04:57:12.883Z,58.90
2017-01-27T04:58:13.460Z,58.90
2017-01-27T04:59:13.059Z,59.01
2017-01-27T05:00:14.657Z,58.97
2017-01-27T05:01:12.787Z,58.87
2017-01-27T05:02:12.834Z,58.90
2017-01-27T05:03:14.767Z,58.89
2017-01-27T05:04:12.792Z,58.96
2017-01-27T05:05:12.949Z,59.01
2017-01-27T05:06:12.776Z,59.01
2017-01-27T05:07:14.130Z,59.04
2017-01-27T05:08:12.644Z,59.10
2017-01-27T05:09:13.177Z,59.06
2017-01-27T05:10:12.843Z,59.05
2017-01-27T05:11:13.450Z,59.11
2017-01-27T05:12:12.494Z,59.06
2017-01-27T05:13:14.266Z,59.04
2017-01-27T05:14:13.426Z,59.08
2017-01-27T05:15:13.729Z,59.03
2017-01-27T05:16:13.281Z,59.04
2017-01-27T05:17:12.634Z,59.07
2017-01-27T05:18:13.485Z,59.15
2017-01-27T05:19:14.617Z,59.11
2017-01-27T05:20:12.829Z,59.15
2017-01-27T05:21:13.829Z,59.19
2017-01-27T05:22:13.440Z,59.16
2017-01-27T05:23:14.228Z,59.09
2017-01-27T05:24:12.315Z,59.07
2017-01-27T05:25:17.144Z,59.08
2017-01-27T05:26:12.005Z,59.16
2017-01-27T05:27:12.973Z,59.07
2017-01-27T05:28:12.868Z,59.10
2017-01-27T05:29:13.611Z,59.15
2017-01-27T05:30:13.583Z,59.06
2017-01-27T05:31:13.414Z,59.15
2017-01-27T05:32:12.623Z,59.15
2017-01-27T05:33:13.867Z,59.12
2017-01-27T05:34:14.064Z,59.11
2017-01-27T05:35:12.053Z,59.19
2017-01-27T05:36:11.115Z,59.03
2017-01-27T05:37:12.757Z,58.23
2017-01-27T05:38:13.938Z,58.90
2017-01-27T05:39:12.522Z,59.00
2017-01-27T05:40:13.576Z,59.10
2017-01-27T05:41:18.907Z,59.11
2017-01-27T05:42:12.892Z,59.12
2017-01-27T05:43:11.308Z,59.18
2017-01-27T05:44:12.203Z,59.22
2017-01-27T05:45:12.866Z,59.13
2017-01-27T05:46:12.841Z,59.20
2017-01-27T05:47:13.941Z,59.30
2017-01-27T05:48:12.084Z,60.04
2017-01-27T05:49:12.931Z,60.16
2017-01-27T05:50:12.035Z,60.08
2017-01-27T05:51:12.902Z,59.77
2017-01-27T05:52:16.442Z,59.72
2017-01-27T05:53:14.245Z,59.74
2017-01-27T05:54:12.969Z,59.67
2017-01-27T05:55:12.716Z,59.53
2017-01-27T05:56:13.076Z,59.61
2017-01-27T05:57:12.117Z,59.53
2017-01-27T05:58:12.787Z,59.49
2017-01-27T05:59:11.824Z,59.45
2017-01-27T06:00:13.710Z,58.72
2017-01-27T06:01:14.182Z,59.17
2017-01-27T06:02:13.002Z,59.23
2017-01-27T06:03:15.740Z,59.33
2017-01-27T06:04:13.323Z,59.25
2017-01-27T06:05:14.387Z,59.25
2017-01-27T06:06:12.548Z,59.28
2017-01-27T06:07:14.336Z,59.30
2017-01-27T06:08:13.505Z,59.35
2017-01-27T06:09:13.136Z,59.28
2017-01-27T06:10:12.251Z,59.29
2017-01-27T06:11:12.429Z,59.32
2017-01-27T06:12:12.565Z,59.35
2017-01-27T06:13:13.137Z,59.31
2017-01-27T06:14:12.929Z,59.29
2017-01-27T06:15:12.662Z,59.24
2017-01-27T06:16:13.388Z,59.27
2017-01-27T06:17:12.607Z,59.30
2017-01-27T06:18:12.721Z,59.19
2017-01-27T06:19:13.323Z,59.07
2017-01-27T06:20:12.371Z,59.15
2017-01-27T06:21:10.809Z,59.13
2017-01-27T06:22:13.546Z,59.19
2017-01-27T06:23:12.663Z,59.06
2017-01-27T06:24:12.751Z,58.94
2017-01-27T06:25:12.903Z,58.88
2017-01-27T06:26:12.892Z,58.81
2017-01-27T06:27:12.077Z,58.64
2017-01-27T06:28:13.069Z,58.62
2017-01-27T06:29:12.572Z,58.52
2017-01-27T06:30:12.699Z,58.41
2017-01-27T06:31:13.445Z,58.26
2017-01-27T06:32:12.444Z,58.32
2017-01-27T06:33:13.554Z,58.32
2017-01-27T06:34:12.663Z,58.27
2017-01-27T06:35:13.537Z,58.25
2017-01-27T06:36:13.613Z,58.20
2017-01-27T06:37:12.829Z,58.21
2017-01-27T06:38:12.943Z,58.27
2017-01-27T06:39:12.145Z,58.32
2017-01-27T06:40:12.161Z,58.76
2017-01-27T06:41:12.110Z,58.57
2017-01-27T06:42:12.615Z,58.58
2017-01-27T06:43:12.584Z,58.58
2017-01-27T06:44:10.890Z,58.64
2017-01-27T06:45:14.548Z,58.56
2017-01-27T06:46:11.046Z,58.54
2017-01-27T06:47:12.867Z,58.58
2017-01-27T06:48:13.536Z,58.49
2017-01-27T06:49:12.707Z,58.58
2017-01-27T06:50:11.787Z,58.60
2017-01-27T06:51:14.456Z,58.84
2017-01-27T06:52:14.175Z,58.75
2017-01-27T06:53:12.516Z,58.64
2017-01-27T06:54:13.022Z,58.62
2017-01-27T06:55:12.795Z,58.20
2017-01-27T06:56:13.586Z,57.21
2017-01-27T06:57:14.582Z,57.08
2017-01-27T06:58:11.889Z,57.78
2017-01-27T06:59:14.378Z,57.97
2017-01-27T07:00:12.925Z,57.96
2017-01-27T07:01:12.967Z,57.92
2017-01-27T07:02:13.548Z,57.88
2017-01-27T07:03:14.461Z,57.92
2017-01-27T07:04:14.319Z,53.95
2017-01-27T07:05:12.367Z,49.08
2017-01-27T07:06:13.578Z,49.57
2017-01-27T07:07:13.191Z,50.04
2017-01-27T07:08:14.898Z,54.33
2017-01-27T07:09:09.835Z,52.81
2017-01-27T07:10:14.258Z,54.12
2017-01-27T07:11:13.373Z,53.91
2017-01-27T07:12:13.129Z,55.23
2017-01-27T07:13:12.421Z,54.13
2017-01-27T07:14:12.907Z,54.52
2017-01-27T07:15:13.636Z,54.40
2017-01-27T07:16:13.520Z,54.40
2017-01-27T07:17:12.683Z,54.58
2017-01-27T07:18:13.518Z,54.74
2017-01-27T07:19:12.642Z,54.73
2017-01-27T07:20:13.495Z,54.73
2017-01-27T07:21:12.602Z,54.63
2017-01-27T07:22:11.829Z,54.54
2017-01-27T07:23:12.974Z,54.54
2017-01-27T07:24:11.980Z,54.63
2017-01-27T07:25:11.972Z,54.82
2017-01-27T07:26:11.868Z,55.19
2017-01-27T07:27:12.853Z,55.46
2017-01-27T07:28:12.877Z,55.49
2017-01-27T07:29:15.746Z,55.65
2017-01-27T07:30:12.958Z,55.75
2017-01-27T07:31:12.061Z,55.79
2017-01-27T07:32:12.660Z,55.86
2017-01-27T07:33:12.779Z,56.05
2017-01-27T07:34:11.869Z,56.16
2017-01-27T07:35:12.876Z,55.24
2017-01-27T07:36:14.314Z,54.98
2017-01-27T07:37:13.097Z,55.85
2017-01-27T07:38:12.732Z,56.42
2017-01-27T07:39:12.797Z,54.88
2017-01-27T07:40:12.945Z,51.64
2017-01-27T07:41:11.953Z,47.02
2017-01-27T07:42:12.635Z,46.50
2017-01-27T07:43:13.190Z,44.24
2017-01-27T07:44:13.962Z,45.69
2017-01-27T07:45:11.986Z,44.61
2017-01-27T07:46:12.653Z,49.88
2017-01-27T07:47:12.795Z,47.78
2017-01-27T07:48:15.768Z,47.89
2017-01-27T07:49:12.809Z,47.81
2017-01-27T07:50:14.563Z,48.25
2017-01-27T07:51:13.110Z,48.87
2017-01-27T07:52:12.303Z,49.38
2017-01-27T07:53:12.398Z,49.80
2017-01-27T07:54:13.032Z,50.15
2017-01-27T07:55:12.714Z,50.45
2017-01-27T07:56:12.795Z,50.85
2017-01-27T07:57:13.635Z,51.07
2017-01-27T07:58:13.925Z,51.73
2017-01-27T07:59:13.590Z,52.15
2017-01-27T08:00:10.289Z,52.32
2017-01-27T08:01:12.187Z,53.18
2017-01-27T08:02:12.919Z,53.64
2017-01-27T08:03:13.256Z,53.31
2017-01-27T08:04:12.359Z,53.25
2017-01-27T08:05:12.453Z,54.13
2017-01-27T08:06:13.106Z,54.05
2017-01-27T08:07:13.626Z,54.11
2017-01-27T08:08:13.299Z,54.07
2017-01-27T08:09:13.665Z,54.11
2017-01-27T08:10:11.758Z,54.06
2017-01-27T08:11:14.695Z,54.02
2017-01-27T08:12:13.577Z,53.94
2017-01-27T08:13:13.434Z,53.93
2017-01-27T08:14:12.574Z,53.93
2017-01-27T08:15:13.277Z,53.89
2017-01-27T08:16:12.403Z,53.87
2017-01-27T08:17:13.171Z,53.91
2017-01-27T08:18:12.511Z,53.91
2017-01-27T08:19:13.288Z,53.98
2017-01-27T08:20:11.381Z,54.02
2017-01-27T08:21:13.136Z,54.14
2017-01-27T08:22:12.135Z,54.18
2017-01-27T08:23:11.597Z,54.19
2017-01-27T08:24:12.997Z,53.34
2017-01-27T08:25:12.077Z,53.17
2017-01-27T08:26:11.127Z,53.25
2017-01-27T08:27:12.237Z,54.00
2017-01-27T08:28:12.955Z,54.18
2017-01-27T08:29:12.040Z,54.29
2017-01-27T08:30:11.983Z,54.38
2017-01-27T08:31:12.500Z,54.35
2017-01-27T08:32:12.527Z,53.62
2017-01-27T08:33:12.924Z,53.50
2017-01-27T08:34:12.708Z,53.55
2017-01-27T08:35:13.325Z,53.57
2017-01-27T08:36:12.391Z,53.74
2017-01-27T08:37:12.469Z,53.98
2017-01-27T08:38:12.667Z,54.20
2017-01-27T08:39:13.297Z,54.81
2017-01-27T08:40:13.080Z,54.29
2017-01-27T08:41:12.937Z,54.24
2017-01-27T08:42:11.995Z,54.24
2017-01-27T08:43:13.297Z,54.31
2017-01-27T08:44:14.127Z,55.08
2017-01-27T08:45:12.505Z,55.84
2017-01-27T08:46:12.845Z,55.93
2017-01-27T08:47:13.157Z,55.82
2017-01-27T08:48:12.245Z,55.86
2017-01-27T08:49:15.447Z,55.96
2017-01-27T08:50:14.095Z,56.09
2017-01-27T08:51:11.055Z,56.05
2017-01-27T08:52:15.027Z,56.11
2017-01-27T08:53:12.031Z,56.16
2017-01-27T08:54:11.937Z,56.16
2017-01-27T08:55:13.462Z,56.16
2017-01-27T08:56:13.161Z,56.12
2017-01-27T08:57:10.572Z,56.08
2017-01-27T08:58:13.636Z,56.06
2017-01-27T08:59:14.174Z,56.15
2017-01-27T09:00:12.326Z,56.28
2017-01-27T09:01:13.161Z,56.25
2017-01-27T09:02:13.249Z,56.28
2017-01-27T09:03:12.440Z,56.31
2017-01-27T09:04:13.086Z,56.28
2017-01-27T09:05:12.940Z,56.26
2017-01-27T09:06:12.045Z,56.26
2017-01-27T09:07:13.068Z,56.26
2017-01-27T09:08:12.129Z,56.30
2017-01-27T09:09:12.201Z,56.35
2017-01-27T09:10:11.185Z,56.41
2017-01-27T09:11:12.373Z,55.86
2017-01-27T09:12:13.039Z,56.35
2017-01-27T09:13:12.783Z,56.31
2017-01-27T09:14:13.638Z,55.61
2017-01-27T09:15:13.301Z,55.49
2017-01-27T09:16:12.757Z,55.57
2017-01-27T09:17:12.896Z,56.29
2017-01-27T09:18:12.978Z,56.50
2017-01-27T09:19:12.810Z,56.56
2017-01-27T09:20:13.545Z,56.61
2017-01-27T09:21:12.606Z,56.68
2017-01-27T09:22:15.315Z,56.68
2017-01-27T09:23:12.476Z,56.71
2017-01-27T09:24:13.149Z,56.74
2017-01-27T09:25:12.121Z,56.75
2017-01-27T09:26:12.098Z,56.76
2017-01-27T09:27:12.175Z,56.81
2017-01-27T09:28:12.319Z,56.75
2017-01-27T09:29:13.616Z,56.82
2017-01-27T09:30:14.344Z,56.84
2017-01-27T09:31:12.968Z,56.92
2017-01-27T09:32:12.569Z,56.89
2017-01-27T09:33:11.886Z,56.89
2017-01-27T09:34:13.354Z,56.73
2017-01-27T09:35:10.122Z,56.69
2017-01-27T09:36:12.079Z,56.72
2017-01-27T09:37:12.237Z,56.65
2017-01-27T09:38:15.775Z,56.56
2017-01-27T09:39:13.670Z,56.60
2017-01-27T09:40:14.326Z,56.51
2017-01-27T09:41:12.488Z,56.52
2017-01-27T09:42:10.023Z,56.50
2017-01-27T09:43:12.478Z,56.71
2017-01-27T09:44:13.728Z,56.80
2017-01-27T09:45:13.596Z,57.01
2017-01-27T09:46:13.284Z,56.94
2017-01-27T09:47:13.262Z,56.80
2017-01-27T09:48:12.926Z,56.68
2017-01-27T09:49:12.920Z,56.62
2017-01-27T09:50:13.683Z,56.62
2017-01-27T09:51:13.453Z,56.51
2017-01-27T09:52:12.527Z,56.60
2017-01-27T09:53:13.215Z,56.63
2017-01-27T09:54:12.327Z,55.86
2017-01-27T09:55:13.007Z,56.41
2017-01-27T09:56:12.379Z,56.45
2017-01-27T09:57:13.174Z,56.37
2017-01-27T09:58:13.174Z,56.44
2017-01-27T09:59:12.913Z,56.44
2017-01-27T10:00:14.743Z,56.43
2017-01-27T10:01:14.306Z,57.03
2017-01-27T10:02:12.591Z,56.67
2017-01-27T10:03:13.391Z,56.59
2017-01-27T10:04:14.977Z,55.42
2017-01-27T10:05:12.772Z,33.65
2017-01-27T10:06:12.926Z,31.86
2017-01-27T10:07:13.816Z,32.57
2017-01-27T10:08:13.476Z,34.58
2017-01-27T10:09:13.041Z,33.54
2017-01-27T10:10:12.736Z,35.14
2017-01-27T10:11:13.537Z,34.99
2017-01-27T10:12:13.159Z,34.45
2017-01-27T10:13:12.943Z,35.17
2017-01-27T10:14:12.084Z,35.30
2017-01-27T10:15:12.748Z,35.16
2017-01-27T10:16:13.327Z,37.06
2017-01-27T10:17:13.618Z,37.88
2017-01-27T10:18:13.307Z,38.65
2017-01-27T10:19:12.985Z,39.44
2017-01-27T10:20:12.709Z,39.21
2017-01-27T10:21:13.277Z,39.08
2017-01-27T10:22:12.428Z,39.12
2017-01-27T10:23:13.159Z,38.81
2017-01-27T10:24:13.754Z,38.94
2017-01-27T10:25:14.361Z,39.33
2017-01-27T10:26:12.474Z,39.62
2017-01-27T10:27:12.636Z,40.24
2017-01-27T10:28:12.988Z,41.03
2017-01-27T10:29:13.077Z,40.67
2017-01-27T10:30:12.475Z,40.66
2017-01-27T10:31:16.157Z,40.93
2017-01-27T10:32:12.974Z,40.92
2017-01-27T10:33:14.072Z,41.30
2017-01-27T10:34:12.268Z,41.51
2017-01-27T10:35:13.572Z,41.65
2017-01-27T10:36:13.199Z,41.45
2017-01-27T10:37:11.754Z,41.94
2017-01-27T10:38:14.418Z,42.29
2017-01-27T10:39:12.555Z,42.12
2017-01-27T10:40:12.665Z,43.03
2017-01-27T10:41:12.764Z,42.81
2017-01-27T10:42:13.313Z,43.23
2017-01-27T10:43:12.996Z,42.24
2017-01-27T10:44:13.531Z,42.36
2017-01-27T10:45:13.482Z,43.09
2017-01-27T10:46:12.673Z,43.25
2017-01-27T10:47:12.825Z,43.73
2017-01-27T10:48:12.882Z,43.66
2017-01-27T10:49:13.081Z,43.70
2017-01-27T10:50:12.474Z,43.98
2017-01-27T10:51:13.243Z,44.30
2017-01-27T10:52:12.241Z,44.51
2017-01-27T10:53:11.357Z,44.88
2017-01-27T10:54:12.982Z,45.10
2017-01-27T10:55:12.734Z,45.40
2017-01-27T10:56:13.749Z,45.56
2017-01-27T10:57:12.972Z,45.97
2017-01-27T10:58:12.237Z,46.45
2017-01-27T10:59:13.305Z,46.70
2017-01-27T11:00:12.485Z,46.93
2017-01-27T11:01:12.487Z,47.04
2017-01-27T11:02:12.444Z,47.13
2017-01-27T11:03:12.432Z,47.17
2017-01-27T11:04:12.344Z,47.43
2017-01-27T11:05:12.349Z,47.50
2017-01-27T11:06:13.092Z,47.47
2017-01-27T11:07:10.635Z,47.68
2017-01-27T11:08:12.975Z,47.75
2017-01-27T11:09:12.621Z,47.84
2017-01-27T11:10:11.805Z,47.90
2017-01-27T11:11:12.739Z,47.90
2017-01-27T11:12:12.765Z,48.09
2017-01-27T11:13:12.877Z,48.13
2017-01-27T11:14:14.549Z,48.24
2017-01-27T11:15:14.458Z,48.32
2017-01-27T11:16:11.455Z,48.43
2017-01-27T11:17:13.435Z,48.45
2017-01-27T11:18:12.617Z,48.52
2017-01-27T11:19:13.344Z,48.56
2017-01-27T11:20:12.860Z,47.88
2017-01-27T11:21:13.450Z,47.78
2017-01-27T11:22:13.472Z,48.56
2017-01-27T11:23:12.500Z,48.72
2017-01-27T11:24:14.939Z,48.89
2017-01-27T11:25:12.645Z,48.97
2017-01-27T11:26:16.079Z,49.06
2017-01-27T11:27:12.913Z,49.05
2017-01-27T11:28:14.668Z,49.20
2017-01-27T11:29:13.843Z,49.22
2017-01-27T11:30:13.548Z,49.27
2017-01-27T11:31:13.172Z,49.28
2017-01-27T11:32:11.529Z,49.38
2017-01-27T11:33:13.485Z,49.46
2017-01-27T11:34:10.372Z,49.56
2017-01-27T11:35:12.872Z,49.53
2017-01-27T11:36:13.641Z,49.59
2017-01-27T11:37:12.636Z,49.65
2017-01-27T11:38:13.459Z,49.73
2017-01-27T11:39:14.127Z,49.79
2017-01-27T11:40:12.670Z,49.79
2017-01-27T11:41:14.252Z,49.87
2017-01-27T11:42:13.874Z,49.96
2017-01-27T11:43:12.957Z,49.96
2017-01-27T11:44:13.363Z,49.99
2017-01-27T11:45:12.947Z,50.05
2017-01-27T11:46:11.941Z,50.12
2017-01-27T11:47:11.938Z,50.10
2017-01-27T11:48:12.689Z,50.21
2017-01-27T11:49:12.729Z,50.21
2017-01-27T11:50:12.999Z,50.25
2017-01-27T11:51:12.078Z,50.26
2017-01-27T11:52:13.930Z,50.31
2017-01-27T11:53:12.587Z,50.34
2017-01-27T11:54:13.362Z,50.32
2017-01-27T11:55:13.018Z,49.89
2017-01-27T11:56:12.061Z,50.34
2017-01-27T11:57:12.389Z,50.38
2017-01-27T11:58:10.268Z,50.52
2017-01-27T11:59:14.493Z,50.51
2017-01-27T12:00:12.635Z,50.55
2017-01-27T12:01:13.348Z,50.53
2017-01-27T12:02:13.353Z,50.59
2017-01-27T12:03:13.869Z,50.65
2017-01-27T12:04:14.596Z,50.67
2017-01-27T12:05:11.763Z,50.78
2017-01-27T12:06:13.553Z,50.76
2017-01-27T12:07:12.755Z,50.78
2017-01-27T12:08:11.845Z,50.82
2017-01-27T12:09:13.619Z,50.82
2017-01-27T12:10:13.450Z,50.92
2017-01-27T12:11:14.270Z,50.92
2017-01-27T12:12:12.351Z,50.99
2017-01-27T12:13:13.484Z,50.86
2017-01-27T12:14:13.909Z,50.46
2017-01-27T12:15:15.658Z,50.87
2017-01-27T12:16:13.312Z,50.94
2017-01-27T12:17:11.582Z,50.95
2017-01-27T12:18:12.729Z,51.03
2017-01-27T12:19:12.749Z,51.11
2017-01-27T12:20:12.648Z,51.07
2017-01-27T12:21:13.546Z,51.17
2017-01-27T12:22:13.189Z,51.19
2017-01-27T12:23:12.809Z,51.20
2017-01-27T12:24:13.610Z,51.26
2017-01-27T12:25:13.493Z,51.26
2017-01-27T12:26:13.033Z,51.24
2017-01-27T12:27:11.251Z,51.29
2017-01-27T12:28:10.988Z,51.33
2017-01-27T12:29:13.119Z,51.34
2017-01-27T12:30:12.121Z,51.34
2017-01-27T12:31:13.891Z,51.43
2017-01-27T12:32:12.606Z,51.37
2017-01-27T12:33:13.673Z,51.44
2017-01-27T12:34:12.826Z,51.45
2017-01-27T12:35:13.420Z,51.47
2017-01-27T12:36:12.949Z,51.51
2017-01-27T12:37:12.213Z,51.56
2017-01-27T12:38:12.349Z,51.57
2017-01-27T12:39:13.012Z,51.55
2017-01-27T12:40:12.722Z,51.58
2017-01-27T12:41:12.683Z,51.59
2017-01-27T12:42:12.721Z,51.63
2017-01-27T12:43:12.847Z,51.70
2017-01-27T12:44:14.339Z,51.68
2017-01-27T12:45:13.468Z,51.70
2017-01-27T12:46:13.224Z,51.73
2017-01-27T12:47:13.044Z,51.77
2017-01-27T12:48:12.669Z,51.77
2017-01-27T12:49:13.331Z,51.80
2017-01-27T12:50:12.366Z,51.82
2017-01-27T12:51:14.264Z,51.79
2017-01-27T12:52:12.925Z,51.83